createdAt,value
2023-01-10T00:01:43.078Z,1.67
2023-01-10T00:04:12.137Z,1.83
2023-01-10T00:06:45.738Z,1.53
2023-01-10T00:09:22.737Z,2.20
2023-01-10T00:12:14.345Z,2.30
2023-01-10T00:14:42.751Z,1.97
2023-01-10T00:17:11.776Z,1.80
2023-01-10T00:19:44.148Z,1.87
2023-01-10T00:22:24.492Z,1.60
2023-01-10T00:25:03.135Z,1.80
2023-01-10T00:27:35.705Z,1.97
2023-01-10T00:30:16.550Z,1.80
2023-01-10T00:32:46.078Z,1.70
2023-01-10T00:35:15.137Z,2.00
2023-01-10T00:37:48.687Z,1.40
2023-01-10T00:40:20.455Z,1.57
2023-01-10T00:43:09.596Z,1.70
2023-01-10T00:45:37.851Z,1.67
2023-01-10T00:48:06.374Z,2.07
2023-01-10T00:50:34.821Z,1.90
2023-01-10T00:53:04.221Z,1.87
2023-01-10T00:55:33.334Z,1.50
2023-01-10T00:58:17.469Z,1.43
2023-01-10T01:00:53.115Z,1.47
2023-01-10T01:03:27.212Z,1.60
2023-01-10T01:06:04.356Z,1.50
2023-01-10T01:08:33.327Z,1.50
2023-01-10T01:11:03.035Z,1.80
2023-01-10T01:13:40.853Z,1.80
2023-01-10T01:16:12.415Z,1.70
2023-01-10T01:18:42.154Z,1.20
2023-01-10T01:21:11.764Z,2.00
2023-01-10T01:23:41.106Z,1.63
2023-01-10T01:26:19.240Z,1.80
2023-01-10T01:28:51.281Z,1.90
2023-01-10T01:31:34.502Z,1.40
2023-01-10T01:34:05.139Z,1.57
2023-01-10T01:36:35.540Z,1.63
2023-01-10T01:39:08.656Z,2.03
2023-01-10T01:41:57.268Z,1.90
2023-01-10T01:44:31.585Z,1.17
2023-01-10T01:47:09.105Z,1.60
2023-01-10T01:49:40.620Z,1.57
2023-01-10T01:52:14.273Z,1.90
2023-01-10T01:54:43.633Z,1.83
2023-01-10T01:57:16.204Z,1.70
2023-01-10T01:59:58.083Z,1.40
2023-01-10T02:02:33.060Z,1.87
2023-01-10T02:05:06.789Z,1.20
2023-01-10T02:07:46.647Z,1.40
2023-01-10T02:10:24.265Z,1.40
2023-01-10T02:13:02.725Z,1.80
2023-01-10T02:15:55.727Z,1.80
2023-01-10T02:18:30.298Z,1.60
2023-01-10T02:21:24.856Z,1.63
2023-01-10T02:24:27.908Z,1.63
2023-01-10T02:27:30.115Z,1.40
2023-01-10T02:30:50.746Z,1.20
2023-01-10T02:33:28.501Z,1.67
2023-01-10T02:36:15.283Z,1.57
2023-01-10T02:39:03.391Z,1.37
2023-01-10T02:41:37.599Z,1.10
2023-01-10T02:44:21.733Z,1.50
2023-01-10T02:46:53.739Z,1.70
2023-01-10T02:49:24.869Z,0.97
2023-01-10T02:51:53.026Z,1.50
2023-01-10T02:54:30.962Z,1.57
2023-01-10T02:57:34.531Z,1.23
2023-01-10T03:00:14.030Z,1.50
2023-01-10T03:03:15.269Z,1.43
2023-01-10T03:06:07.258Z,1.30
2023-01-10T03:08:41.532Z,1.27
2023-01-10T03:11:19.370Z,1.40
2023-01-10T03:13:59.213Z,1.30
2023-01-10T03:16:31.157Z,1.70
2023-01-10T03:19:08.317Z,1.67
2023-01-10T03:21:44.806Z,1.67
2023-01-10T03:24:16.845Z,1.40
2023-01-10T03:26:52.585Z,1.43
2023-01-10T03:29:30.194Z,1.47
2023-01-10T03:32:05.594Z,1.53
2023-01-10T03:34:37.118Z,1.43
2023-01-10T03:37:15.988Z,1.40
2023-01-10T03:39:52.698Z,1.50
2023-01-10T03:42:28.751Z,1.13
2023-01-10T03:45:01.393Z,1.60
2023-01-10T03:47:35.194Z,1.60
2023-01-10T03:50:07.648Z,1.67
2023-01-10T03:52:48.595Z,1.87
2023-01-10T03:55:21.621Z,1.20
2023-01-10T03:57:53.210Z,1.57
2023-01-10T04:00:24.467Z,1.70
2023-01-10T04:02:56.337Z,1.23
2023-01-10T04:05:39.187Z,1.27
2023-01-10T04:08:17.775Z,1.80
2023-01-10T04:10:50.549Z,1.33
2023-01-10T04:13:28.023Z,1.60
2023-01-10T04:16:00.926Z,1.80
2023-01-10T04:18:35.812Z,1.40
2023-01-10T04:21:06.851Z,1.50
2023-01-10T04:23:48.243Z,1.63
2023-01-10T04:26:17.056Z,1.37
2023-01-10T04:28:46.117Z,1.80
2023-01-10T04:31:15.147Z,1.97
2023-01-10T04:33:47.080Z,1.60
2023-01-10T04:36:16.085Z,1.37
2023-01-10T04:38:50.259Z,1.40
2023-01-10T04:41:21.728Z,1.73
2023-01-10T04:43:53.361Z,1.83
2023-01-10T04:46:32.575Z,1.40
2023-01-10T04:49:06.454Z,1.60
2023-01-10T04:51:36.132Z,2.00
2023-01-10T04:54:29.311Z,1.40
2023-01-10T04:56:58.201Z,1.67
2023-01-10T04:59:27.693Z,1.70
2023-01-10T05:01:58.294Z,2.00
2023-01-10T05:04:28.158Z,1.43
2023-01-10T05:06:56.230Z,2.47
2023-01-10T05:09:25.950Z,1.70
2023-01-10T05:11:54.266Z,1.83
2023-01-10T05:14:34.995Z,1.50
2023-01-10T05:17:04.142Z,2.00
2023-01-10T05:19:33.717Z,1.83
2023-01-10T05:22:03.408Z,2.10
2023-01-10T05:24:44.486Z,1.87
2023-01-10T05:27:13.195Z,1.50
2023-01-10T05:29:42.587Z,2.17
2023-01-10T05:32:11.683Z,1.87
2023-01-10T05:34:45.271Z,1.97
2023-01-10T05:37:14.139Z,1.63
2023-01-10T05:40:00.383Z,1.50
2023-01-10T05:42:30.308Z,2.00
2023-01-10T05:45:07.244Z,1.57
2023-01-10T05:47:45.468Z,1.70
2023-01-10T05:50:13.843Z,1.40
2023-01-10T05:52:50.303Z,1.80
2023-01-10T05:55:39.148Z,1.70
2023-01-10T05:58:11.131Z,1.80
2023-01-10T06:00:43.516Z,1.87
2023-01-10T06:03:15.028Z,2.00
2023-01-10T06:05:47.189Z,1.90
2023-01-10T06:08:26.052Z,2.47
2023-01-10T06:11:04.995Z,1.93
2023-01-10T06:13:38.726Z,1.93
2023-01-10T06:16:16.735Z,1.70
2023-01-10T06:18:47.888Z,1.93
2023-01-10T06:21:16.432Z,1.90
2023-01-10T06:23:46.257Z,2.00
2023-01-10T06:26:16.835Z,1.87
2023-01-10T06:28:45.207Z,1.97
2023-01-10T06:31:15.484Z,1.90
2023-01-10T06:33:47.507Z,1.83
2023-01-10T06:36:21.557Z,1.80
2023-01-10T06:38:55.160Z,2.20
2023-01-10T06:41:39.587Z,2.20
2023-01-10T06:44:17.116Z,1.97
2023-01-10T06:46:54.383Z,2.13
2023-01-10T06:49:23.489Z,1.90
2023-01-10T06:51:52.892Z,1.90
2023-01-10T06:54:24.432Z,2.40
2023-01-10T06:56:53.885Z,2.30
2023-01-10T06:59:35.370Z,2.17
2023-01-10T07:02:05.383Z,2.90
2023-01-10T07:04:34.749Z,2.20
2023-01-10T07:07:05.650Z,2.50
2023-01-10T07:09:36.631Z,2.40
2023-01-10T07:12:08.782Z,2.10
2023-01-10T07:14:39.597Z,2.40
2023-01-10T07:17:11.126Z,2.47
2023-01-10T07:19:39.279Z,2.50
2023-01-10T07:22:09.991Z,2.50
2023-01-10T07:24:38.262Z,2.13
2023-01-10T07:27:14.798Z,2.20
2023-01-10T07:29:53.764Z,2.30
2023-01-10T07:32:25.591Z,4.03
2023-01-10T07:34:56.910Z,2.70
2023-01-10T07:37:28.674Z,2.10
2023-01-10T07:40:03.490Z,2.27
2023-01-10T07:42:39.837Z,2.30
2023-01-10T07:45:09.788Z,2.37
2023-01-10T07:47:38.592Z,2.60
2023-01-10T07:50:10.221Z,2.73
2023-01-10T07:52:39.477Z,2.07
2023-01-10T07:55:09.898Z,2.60
2023-01-10T07:57:45.175Z,2.47
2023-01-10T08:00:25.457Z,2.50
2023-01-10T08:02:55.777Z,2.40
2023-01-10T08:05:24.211Z,2.40
2023-01-10T08:07:56.379Z,2.57
2023-01-10T08:10:26.452Z,2.23
2023-01-10T08:13:17.930Z,2.60
2023-01-10T08:15:53.111Z,2.30
2023-01-10T08:18:24.862Z,2.90
2023-01-10T08:20:58.103Z,4.10
2023-01-10T08:23:29.044Z,3.07
2023-01-10T08:25:59.802Z,4.27
2023-01-10T08:28:31.987Z,3.00
2023-01-10T08:31:08.645Z,3.50
2023-01-10T08:33:42.341Z,3.17
2023-01-10T08:36:28.282Z,2.50
2023-01-10T08:38:59.984Z,3.07
2023-01-10T08:41:31.443Z,2.50
2023-01-10T08:44:05.173Z,2.20
2023-01-10T08:46:34.566Z,3.30
2023-01-10T08:49:03.659Z,2.13
2023-01-10T08:51:35.805Z,2.83
2023-01-10T08:54:04.673Z,2.60
2023-01-10T08:56:36.347Z,2.67
2023-01-10T08:59:18.792Z,2.60
2023-01-10T09:01:48.297Z,2.77
2023-01-10T09:04:20.103Z,2.60
2023-01-10T09:06:50.378Z,3.23
2023-01-10T09:09:27.636Z,3.00
2023-01-10T09:11:59.460Z,2.70
2023-01-10T09:14:31.991Z,2.80
2023-01-10T09:17:09.027Z,3.10
2023-01-10T09:19:39.911Z,3.10
2023-01-10T09:22:10.553Z,2.70
2023-01-10T09:24:44.034Z,2.63
2023-01-10T09:27:18.223Z,2.60
2023-01-10T09:29:52.714Z,3.10
2023-01-10T09:32:22.112Z,2.63
2023-01-10T09:34:52.668Z,2.40
2023-01-10T09:37:33.897Z,2.90
2023-01-10T09:40:07.669Z,2.60
2023-01-10T09:42:50.818Z,2.70
2023-01-10T09:45:32.573Z,2.90
2023-01-10T09:48:04.664Z,2.40
2023-01-10T09:50:41.924Z,2.60
2023-01-10T09:53:14.148Z,2.50
2023-01-10T09:55:46.226Z,2.40
2023-01-10T09:58:17.182Z,3.23
2023-01-10T10:00:56.088Z,2.67
2023-01-10T10:03:31.542Z,2.23
2023-01-10T10:06:11.613Z,3.77
2023-01-10T10:08:44.605Z,2.57
2023-01-10T10:11:53.327Z,2.63
2023-01-10T10:14:42.452Z,2.70
2023-01-10T10:17:36.566Z,2.20
2023-01-10T10:20:25.671Z,2.30
2023-01-10T10:23:09.646Z,2.67
2023-01-10T10:25:50.406Z,3.00
2023-01-10T10:28:54.589Z,2.53
2023-01-10T10:31:32.787Z,2.80
2023-01-10T10:34:20.097Z,2.60
2023-01-10T10:36:52.211Z,2.30
2023-01-10T10:39:23.857Z,2.40
2023-01-10T10:42:02.200Z,3.00
2023-01-10T10:44:43.962Z,3.03
2023-01-10T10:47:23.909Z,3.37
2023-01-10T10:50:02.237Z,2.70
2023-01-10T10:52:37.961Z,2.67
2023-01-10T10:55:16.658Z,2.80
2023-01-10T10:57:59.388Z,3.20
2023-01-10T11:00:31.402Z,2.63
2023-01-10T11:03:08.452Z,2.10
2023-01-10T11:05:55.894Z,2.40
2023-01-10T11:08:26.774Z,3.17
2023-01-10T11:10:59.950Z,2.50
2023-01-10T11:13:38.600Z,2.53
2023-01-10T11:16:09.009Z,2.37
2023-01-10T11:18:41.623Z,2.70
2023-01-10T11:21:25.173Z,2.53
2023-01-10T11:23:55.031Z,2.53
2023-01-10T11:26:35.156Z,2.80
2023-01-10T11:29:16.525Z,2.80
2023-01-10T11:31:49.398Z,2.80
2023-01-10T11:34:26.145Z,2.50
2023-01-10T11:37:11.495Z,2.43
2023-01-10T11:39:46.716Z,2.50
2023-01-10T11:42:30.694Z,2.40
2023-01-10T11:45:33.901Z,2.23
2023-01-10T11:48:19.354Z,2.37
2023-01-10T11:51:00.138Z,2.33
2023-01-10T11:54:05.737Z,2.23
2023-01-10T11:56:48.915Z,2.20
2023-01-10T11:59:19.121Z,2.20
2023-01-10T12:01:55.017Z,2.00
2023-01-10T12:04:23.868Z,2.80
2023-01-10T12:06:58.483Z,2.10
2023-01-10T12:09:44.456Z,2.27
2023-01-10T12:12:26.003Z,1.90
2023-01-10T12:14:56.643Z,2.10
2023-01-10T12:17:33.354Z,2.00
2023-01-10T12:20:13.493Z,2.27
2023-01-10T12:22:53.986Z,2.07
2023-01-10T12:25:31.140Z,2.53
2023-01-10T12:28:02.178Z,2.60
2023-01-10T12:30:46.247Z,2.20
2023-01-10T12:33:21.231Z,2.20
2023-01-10T12:35:53.593Z,2.03
2023-01-10T12:38:50.249Z,1.60
2023-01-10T12:41:44.011Z,2.13
2023-01-10T12:44:27.285Z,2.23
2023-01-10T12:47:09.223Z,1.80
2023-01-10T12:49:45.603Z,2.20
2023-01-10T12:52:21.347Z,2.07
2023-01-10T12:54:56.746Z,1.90
2023-01-10T12:57:33.073Z,1.90
2023-01-10T13:00:05.979Z,2.23
2023-01-10T13:02:41.600Z,2.30
2023-01-10T13:05:18.436Z,1.80
2023-01-10T13:07:50.424Z,1.67
2023-01-10T13:10:21.823Z,1.50
2023-01-10T13:12:56.741Z,1.77
2023-01-10T13:15:30.027Z,1.93
2023-01-10T13:18:06.325Z,2.10
2023-01-10T13:20:44.855Z,1.80
2023-01-10T13:23:33.229Z,2.10
2023-01-10T13:26:16.193Z,1.33
2023-01-10T13:29:00.756Z,1.60
2023-01-10T13:31:39.864Z,1.80
2023-01-10T13:34:15.270Z,1.93
2023-01-10T13:36:52.672Z,1.57
2023-01-10T13:39:25.093Z,1.73
2023-01-10T13:42:51.892Z,1.60
2023-01-10T13:45:29.477Z,2.00
2023-01-10T13:48:22.962Z,1.53
2023-01-10T13:51:10.908Z,2.00
2023-01-10T13:54:01.304Z,1.70
2023-01-10T13:56:33.217Z,1.80
2023-01-10T13:59:23.106Z,1.83
2023-01-10T14:02:13.114Z,1.60
2023-01-10T14:04:52.945Z,1.70
2023-01-10T14:07:25.852Z,2.10
2023-01-10T14:10:04.636Z,2.20
2023-01-10T14:12:40.051Z,1.90
2023-01-10T14:15:24.575Z,2.37
2023-01-10T14:18:08.158Z,1.83
2023-01-10T14:20:37.483Z,1.70
2023-01-10T14:23:14.625Z,1.60
2023-01-10T14:25:48.655Z,2.00
2023-01-10T14:28:27.176Z,1.70
2023-01-10T14:31:03.908Z,1.83
2023-01-10T14:33:39.232Z,1.93
2023-01-10T14:36:11.611Z,1.80
2023-01-10T14:38:43.834Z,1.50
2023-01-10T14:41:21.786Z,1.40
2023-01-10T14:43:57.910Z,1.30
2023-01-10T14:46:35.292Z,1.50
2023-01-10T14:49:23.170Z,1.20
2023-01-10T14:51:59.730Z,2.10
2023-01-10T14:54:30.731Z,1.60
2023-01-10T14:57:02.800Z,1.40
2023-01-10T14:59:34.334Z,1.63
2023-01-10T15:02:12.002Z,1.60
2023-01-10T15:04:53.482Z,1.57
2023-01-10T15:07:23.863Z,1.57
2023-01-10T15:09:58.436Z,1.30
2023-01-10T15:12:29.321Z,1.40
2023-01-10T15:15:07.898Z,1.63
2023-01-10T15:17:38.639Z,1.50
2023-01-10T15:20:17.656Z,1.40
2023-01-10T15:22:55.631Z,1.60
2023-01-10T15:25:31.682Z,1.70
2023-01-10T15:28:07.842Z,1.30
2023-01-10T15:30:39.249Z,1.77
2023-01-10T15:33:16.459Z,1.57
2023-01-10T15:35:48.802Z,1.60
2023-01-10T15:38:22.454Z,1.57
2023-01-10T15:40:57.524Z,2.00
2023-01-10T15:43:29.215Z,1.43
2023-01-10T15:46:06.084Z,1.57
2023-01-10T15:48:38.185Z,2.20
2023-01-10T15:51:25.983Z,1.70
2023-01-10T15:54:03.516Z,1.80
2023-01-10T15:56:38.812Z,2.07
2023-01-10T15:59:25.422Z,2.00
2023-01-10T16:02:02.394Z,1.90
2023-01-10T16:04:35.108Z,1.33
2023-01-10T16:07:19.366Z,1.40
2023-01-10T16:09:55.696Z,1.53
2023-01-10T16:12:53.744Z,1.70
2023-01-10T16:15:25.081Z,1.40
2023-01-10T16:17:54.824Z,2.10
2023-01-10T16:20:30.913Z,2.00
2023-01-10T16:23:06.876Z,1.90
2023-01-10T16:25:40.845Z,1.47
2023-01-10T16:28:12.125Z,1.70
2023-01-10T16:30:46.694Z,2.23
2023-01-10T16:33:27.968Z,1.93
2023-01-10T16:35:58.571Z,2.17
2023-01-10T16:38:35.118Z,1.80
2023-01-10T16:41:32.371Z,2.07
2023-01-10T16:44:11.004Z,2.20
2023-01-10T16:46:42.399Z,2.87
2023-01-10T16:49:24.780Z,1.83
2023-01-10T16:51:53.966Z,1.97
2023-01-10T16:54:28.485Z,2.07
2023-01-10T16:57:05.476Z,2.30
2023-01-10T16:59:35.614Z,2.73
2023-01-10T17:02:14.397Z,2.40
2023-01-10T17:04:46.209Z,2.70
2023-01-10T17:07:17.615Z,2.00
2023-01-10T17:10:01.051Z,3.07
2023-01-10T17:12:39.891Z,2.87
2023-01-10T17:15:14.155Z,2.40
2023-01-10T17:17:52.926Z,2.10
2023-01-10T17:20:25.692Z,2.83
2023-01-10T17:23:02.493Z,3.40
2023-01-10T17:25:36.958Z,2.50
2023-01-10T17:28:06.582Z,2.53
2023-01-10T17:30:37.653Z,2.67
2023-01-10T17:33:11.003Z,2.10
2023-01-10T17:35:45.649Z,1.90
2023-01-10T17:38:17.466Z,2.20
2023-01-10T17:40:53.628Z,2.00
2023-01-10T17:43:24.614Z,2.20
2023-01-10T17:46:00.721Z,2.67
2023-01-10T17:48:32.777Z,1.90
2023-01-10T17:51:04.076Z,1.90
2023-01-10T17:53:33.570Z,2.40
2023-01-10T17:56:07.752Z,2.10
2023-01-10T17:58:37.201Z,2.23
2023-01-10T18:01:06.357Z,2.53
2023-01-10T18:03:44.105Z,2.23
2023-01-10T18:06:25.249Z,2.07
2023-01-10T18:08:56.684Z,1.87
2023-01-10T18:11:33.138Z,1.90
2023-01-10T18:14:31.240Z,1.90
2023-01-10T18:17:03.624Z,1.70
2023-01-10T18:19:38.195Z,1.80
2023-01-10T18:22:25.676Z,2.37
2023-01-10T18:24:56.121Z,2.10
2023-01-10T18:27:28.939Z,2.10
2023-01-10T18:30:09.158Z,2.37
2023-01-10T18:32:40.761Z,1.50
2023-01-10T18:35:22.335Z,1.90
2023-01-10T18:37:58.209Z,1.40
2023-01-10T18:40:28.431Z,2.20
2023-01-10T18:43:03.569Z,2.00
2023-01-10T18:45:40.869Z,2.00
2023-01-10T18:48:18.022Z,1.77
2023-01-10T18:50:52.963Z,2.30
2023-01-10T18:53:31.016Z,1.40
2023-01-10T18:56:04.931Z,2.10
2023-01-10T18:58:43.229Z,1.80
2023-01-10T19:01:23.689Z,1.60
2023-01-10T19:03:56.120Z,1.90
2023-01-10T19:09:16.530Z,1.40
2023-01-10T19:11:47.532Z,1.87
2023-01-10T19:14:26.567Z,1.80
2023-01-10T19:17:06.414Z,2.33
2023-01-10T19:19:42.843Z,2.40
2023-01-10T19:22:19.040Z,2.40
2023-01-10T19:25:07.964Z,2.00
2023-01-10T19:27:40.002Z,2.33
2023-01-10T19:30:22.674Z,2.10
2023-01-10T19:32:58.188Z,2.30
2023-01-10T19:35:36.191Z,2.13
2023-01-10T19:38:07.020Z,2.07
2023-01-10T19:40:50.641Z,2.40
2023-01-10T19:43:34.377Z,2.20
2023-01-10T19:46:23.411Z,2.13
2023-01-10T19:48:54.307Z,2.23
2023-01-10T19:51:35.823Z,2.60
2023-01-10T19:54:12.471Z,2.40
2023-01-10T19:56:52.887Z,2.20
2023-01-10T19:59:25.076Z,2.90
2023-01-10T20:02:03.939Z,2.43
2023-01-10T20:04:49.220Z,2.60
2023-01-10T20:07:27.822Z,2.43
2023-01-10T20:09:58.242Z,2.70
2023-01-10T20:12:31.870Z,2.47
2023-01-10T20:15:04.572Z,3.10
2023-01-10T20:17:45.803Z,2.70
2023-01-10T20:20:32.211Z,2.73
2023-01-10T20:23:15.524Z,2.53
2023-01-10T20:26:01.935Z,2.80
2023-01-10T20:28:46.565Z,2.63
2023-01-10T20:31:20.799Z,3.10
2023-01-10T20:33:59.832Z,2.50
2023-01-10T20:36:37.540Z,2.60
2023-01-10T20:39:08.022Z,2.53
2023-01-10T20:41:40.282Z,2.50
2023-01-10T20:44:11.812Z,2.80
2023-01-10T20:46:42.381Z,2.80
2023-01-10T20:49:27.782Z,2.70
2023-01-10T20:52:04.890Z,2.13
2023-01-10T20:54:38.886Z,2.83
2023-01-10T20:57:11.143Z,2.57
2023-01-10T20:59:42.063Z,3.53
2023-01-10T21:02:12.312Z,2.40
2023-01-10T21:04:50.541Z,3.00
2023-01-10T21:07:25.221Z,3.93
2023-01-10T21:10:06.231Z,4.67
2023-01-10T21:12:35.840Z,2.90
2023-01-10T21:15:12.833Z,3.07
2023-01-10T21:17:44.625Z,2.23
2023-01-10T21:20:21.638Z,2.80
2023-01-10T21:22:51.645Z,2.53
2023-01-10T21:25:21.309Z,2.60
2023-01-10T21:27:51.034Z,2.97
2023-01-10T21:30:22.475Z,2.43
2023-01-10T21:32:54.565Z,2.00
2023-01-10T21:35:39.154Z,2.43
2023-01-10T21:38:10.739Z,1.93
2023-01-10T21:40:41.924Z,2.70
2023-01-10T21:43:13.120Z,2.00
2023-01-10T21:45:53.793Z,2.07
2023-01-10T21:48:25.201Z,2.40
2023-01-10T21:51:05.691Z,1.97
2023-01-10T21:53:41.496Z,1.93
2023-01-10T21:56:18.934Z,1.70
2023-01-10T21:58:49.954Z,2.00
2023-01-10T22:01:21.305Z,2.10
2023-01-10T22:03:53.128Z,1.93
2023-01-10T22:06:26.651Z,1.50
2023-01-10T22:09:06.888Z,2.00
2023-01-10T22:11:39.300Z,2.37
2023-01-10T22:14:08.986Z,1.80
2023-01-10T22:16:40.691Z,2.10
2023-01-10T22:19:13.349Z,2.77
2023-01-10T22:21:58.009Z,1.77
2023-01-10T22:24:35.006Z,1.70
2023-01-10T22:27:08.073Z,1.73
2023-01-10T22:29:40.238Z,1.57
2023-01-10T22:32:21.890Z,1.60
2023-01-10T22:34:53.560Z,1.43
2023-01-10T22:37:38.947Z,1.47
2023-01-10T22:40:10.985Z,1.57
2023-01-10T22:42:42.949Z,1.20
2023-01-10T22:45:23.760Z,1.40
2023-01-10T22:47:54.184Z,1.47
2023-01-10T22:50:23.835Z,1.90
2023-01-10T22:53:06.016Z,2.60
2023-01-10T22:55:36.897Z,1.20
2023-01-10T22:58:14.020Z,1.60
2023-01-10T23:00:55.235Z,1.67
2023-01-10T23:03:29.357Z,1.30
2023-01-10T23:06:05.350Z,1.57
2023-01-10T23:08:38.805Z,1.37
2023-01-10T23:11:08.709Z,1.33
2023-01-10T23:13:40.400Z,1.50
2023-01-10T23:16:13.524Z,1.20
2023-01-10T23:18:44.300Z,1.20
2023-01-10T23:21:14.790Z,1.40
2023-01-10T23:23:49.446Z,1.10
2023-01-10T23:26:22.050Z,1.30
2023-01-10T23:29:00.281Z,1.30
2023-01-10T23:31:30.036Z,1.50
2023-01-10T23:34:02.390Z,1.37
2023-01-10T23:36:31.389Z,1.40
2023-01-10T23:39:09.947Z,1.40
2023-01-10T23:41:40.450Z,1.50
2023-01-10T23:44:08.518Z,1.27
2023-01-10T23:46:44.904Z,1.33
2023-01-10T23:49:16.996Z,1.20
2023-01-10T23:51:45.339Z,1.37
2023-01-10T23:54:17.530Z,1.30
2023-01-10T23:56:49.192Z,1.43
2023-01-10T23:59:20.130Z,1.33
